Time;durP1;ratioP1;P1;durP2;ratioP2;P2;SDS_P1;SDS_P2;PMS_P1;PMS_P2;Temp;Humidity;BMP_temperature;BMP_pressure;BME280_temperature;BME280_humidity;BME280_pressure;Samples;Min_cycle;Max_cycle;Signal;HPM_P1;HPM_P2
2021/07/07 00:02:07;;;;;;;9.23;7.60;;;;;;;;;;5036027;28;20483;-92
2021/07/07 00:04:36;;;;;;;8.60;7.80;;;;;;;;;;5042030;28;20435;-93
2021/07/07 00:07:03;;;;;;;8.73;7.93;;;;;;;;;;5039141;28;20448;-89
2021/07/07 00:09:31;;;;;;;9.03;8.20;;;;;;;;;;5040965;28;20450;-91
2021/07/07 00:11:58;;;;;;;8.87;7.70;;;;;;;;;;5031892;28;20444;-92
2021/07/07 00:14:25;;;;;;;10.37;8.67;;;;;;;;;;5034184;28;20438;-93
2021/07/07 00:16:52;;;;;;;12.03;8.63;;;;;;;;;;5028940;28;20498;-93
2021/07/07 00:19:19;;;;;;;9.90;9.00;;;;;;;;;;5028727;28;20448;-93
2021/07/07 00:21:48;;;;;;;9.10;8.13;;;15.50;99.90;;;;;;5037205;28;20491;-93
2021/07/07 00:24:15;;;;;;;9.30;8.33;;;;;;;;;;5036325;28;20440;-91
2021/07/07 00:26:42;;;;;;;11.73;9.00;;;;;;;;;;5036676;28;20479;-93
2021/07/07 00:29:09;;;;;;;10.80;9.60;;;;;;;;;;5032601;28;20443;-92
2021/07/07 00:31:36;;;;;;;12.23;9.53;;;;;;;;;;5032018;28;20464;-93
2021/07/07 00:34:09;;;;;;;9.93;9.00;;;15.40;99.90;;;;;;5030305;28;20443;-92
2021/07/07 00:36:37;;;;;;;10.93;9.23;;;;;;;;;;5034397;28;20448;-90
2021/07/07 00:39:06;;;;;;;10.07;9.07;;;15.40;99.90;;;;;;5040703;28;20507;-89
2021/07/07 00:41:33;;;;;;;10.50;9.50;;;;;;;;;;5045796;28;20489;-91
2021/07/07 00:44:00;;;;;;;11.33;10.13;;;;;;;;;;5043160;28;20442;-90
2021/07/07 00:46:47;;;;;;;11.43;10.20;;;15.60;99.90;;;;;;5046430;28;20819;-89
2021/07/07 00:49:16;;;;;;;17.07;9.90;;;;;;;;;;5044639;28;20447;-90
2021/07/07 00:51:43;;;;;;;10.10;9.10;;;;;;;;;;5053234;22;20490;-91
2021/07/07 00:54:16;;;;;;;10.73;9.47;;;15.60;99.90;;;;;;5052761;22;20499;-92
2021/07/07 00:56:44;;;;;;;11.40;9.83;;;15.60;99.90;;;;;;5039210;28;20486;-91
2021/07/07 00:59:12;;;;;;;13.13;10.80;;;;;;;;;;5045519;28;20447;-90
2021/07/07 01:01:42;;;;;;;11.10;9.97;;;15.70;99.90;;;;;;5055055;22;20486;-92
2021/07/07 01:04:10;;;;;;;12.60;11.30;;;;;;;;;;5054108;22;20491;-91
2021/07/07 01:06:37;;;;;;;10.37;9.27;;;;;;;;;;5042346;28;20443;-92
2021/07/07 01:09:06;;;;;;;11.77;10.57;;;15.70;99.90;;;;;;5037504;28;20447;-92
2021/07/07 01:11:35;;;;;;;10.93;9.80;;;15.70;99.90;;;;;;4979261;28;20470;-93
2021/07/07 01:14:02;;;;;;;10.90;9.50;;;;;;;;;;4971005;28;20477;-93
2021/07/07 01:16:29;;;;;;;10.23;9.30;;;;;;;;;;4981063;28;20446;-92
2021/07/07 01:18:57;;;;;;;14.03;9.77;;;15.60;99.90;;;;;;4979512;28;20989;-92
2021/07/07 01:21:24;;;;;;;11.33;10.17;;;;;;;;;;4977359;28;20481;-93
2021/07/07 01:23:53;;;;;;;14.27;10.50;;;;;;;;;;4978361;28;20457;-93
2021/07/07 01:26:21;;;;;;;12.33;11.03;;;;;;;;;;4973965;28;20516;-93
2021/07/07 01:28:48;;;;;;;11.07;9.60;;;;;;;;;;4982747;28;20454;-93
2021/07/07 01:31:15;;;;;;;10.60;9.60;;;;;;;;;;5036332;28;20464;-93
2021/07/07 01:34:00;;;;;;;11.30;10.10;;;15.60;99.90;;;;;;5049902;28;20447;-93
2021/07/07 01:36:27;;;;;;;10.23;9.13;;;;;;;;;;5043007;28;20483;-90
2021/07/07 01:38:55;;;;;;;18.10;10.70;;;15.80;99.90;;;;;;5051854;22;20491;-91
2021/07/07 01:41:25;;;;;;;11.60;10.40;;;15.90;99.90;;;;;;5036266;28;20866;-90
2021/07/07 01:43:52;;;;;;;14.17;11.27;;;;;;;;;;5042431;28;20455;-90
2021/07/07 01:46:19;;;;;;;12.97;11.57;;;;;;;;;;5053964;28;20514;-90
2021/07/07 01:48:46;;;;;;;13.23;11.03;;;;;;;;;;5043517;28;20444;-90
2021/07/07 01:51:13;;;;;;;16.00;11.63;;;;;;;;;;5047540;28;20543;-92
2021/07/07 01:53:41;;;;;;;11.10;10.00;;;;;;;;;;5049741;28;20462;-90
2021/07/07 01:56:10;;;;;;;11.07;9.23;;;;;;;;;;5049649;28;21001;-91
2021/07/07 01:58:37;;;;;;;9.87;8.87;;;;;;;;;;5044921;28;20478;-89
2021/07/07 02:01:05;;;;;;;9.30;8.13;;;15.70;99.90;;;;;;5050165;28;20936;-90
2021/07/07 02:03:33;;;;;;;9.27;7.80;;;;;;;;;;5048379;28;20426;-92
2021/07/07 02:06:15;;;;;;;8.33;7.30;;;15.70;99.90;;;;;;5067326;22;20471;-90
2021/07/07 02:09:11;;;;;;;11.03;7.70;;;15.60;99.90;;;;;;5048229;28;20437;-90
2021/07/07 02:11:49;;;;;;;7.17;6.37;;;;;;;;;;5021463;28;20449;-91
2021/07/07 02:14:19;;;;;;;7.80;6.37;;;;;;;;;;5044726;28;20765;-93
2021/07/07 02:16:47;;;;;;;7.50;6.50;;;;;;;;;;5044701;28;20444;-94
2021/07/07 02:19:22;;;;;;;6.97;5.80;;;;;;;;;;5039668;28;20446;-94
2021/07/07 02:21:52;;;;;;;10.40;6.27;;;;;;;;;;5036511;28;20974;-93
2021/07/07 02:24:27;;;;;;;9.13;5.67;;;;;;;;;;5033036;28;20436;-90
2021/07/07 02:26:56;;;;;;;4.93;4.37;;;;;;;;;;5037555;28;20507;-94
2021/07/07 02:29:23;;;;;;;7.20;6.23;;;;;;;;;;5053563;28;20451;-92
2021/07/07 02:31:50;;;;;;;6.50;5.90;;;;;;;;;;5062383;28;20499;-91
2021/07/07 02:34:17;;;;;;;7.47;4.40;;;;;;;;;;5040970;28;20456;-94
2021/07/07 02:36:44;;;;;;;5.30;4.80;;;;;;;;;;5036764;28;20432;-93
2021/07/07 02:39:11;;;;;;;4.33;3.83;;;;;;;;;;5036571;28;20455;-91
2021/07/07 02:41:38;;;;;;;6.50;4.57;;;;;;;;;;5036436;28;20476;-92
2021/07/07 02:44:07;;;;;;;3.30;3.00;;;;;;;;;;5032700;28;20440;-92
2021/07/07 02:46:34;;;;;;;3.20;2.77;;;;;;;;;;5030047;28;20460;-91
2021/07/07 02:49:01;;;;;;;3.87;3.47;;;;;;;;;;5031331;28;20501;-94
2021/07/07 02:51:28;;;;;;;3.70;3.40;;;;;;;;;;5034138;28;20436;-92
2021/07/07 02:53:56;;;;;;;5.00;4.03;;;;;;;;;;5036343;28;20447;-94
2021/07/07 02:56:23;;;;;;;3.87;3.47;;;;;;;;;;5053748;28;20975;-91
2021/07/07 02:58:50;;;;;;;3.60;3.20;;;;;;;;;;5051874;28;20451;-94
2021/07/07 03:01:20;;;;;;;3.60;3.30;;;;;;;;;;5050257;28;20454;-92
2021/07/07 03:03:48;;;;;;;4.60;3.73;;;;;;;;;;5051600;28;20463;-92
2021/07/07 03:06:15;;;;;;;5.20;4.27;;;;;;;;;;5055356;28;20479;-91
2021/07/07 03:08:43;;;;;;;3.80;3.50;;;;;;;;;;5051420;28;20443;-92
2021/07/07 03:11:11;;;;;;;4.57;4.00;;;15.50;99.90;;;;;;5052210;28;20852;-92
2021/07/07 03:13:38;;;;;;;3.80;3.40;;;;;;;;;;5053120;28;20450;-93
2021/07/07 03:16:07;;;;;;;4.30;3.90;;;;;;;;;;5054964;28;20874;-87
2021/07/07 03:18:35;;;;;;;4.87;3.80;;;15.50;99.90;;;;;;5057264;28;20922;-86
2021/07/07 03:21:02;;;;;;;5.60;3.43;;;;;;;;;;5065456;28;20517;-91
2021/07/07 03:23:30;;;;;;;4.03;3.63;;;;;;;;;;5065069;28;20488;-93
2021/07/07 03:25:57;;;;;;;4.10;3.20;;;;;;;;;;5052858;28;20466;-91
2021/07/07 03:28:25;;;;;;;4.10;3.30;;;15.50;99.90;;;;;;5053494;28;20442;-93
2021/07/07 03:30:53;;;;;;;4.00;3.37;;;;;;;;;;5042927;28;20453;-94
2021/07/07 03:33:20;;;;;;;3.27;2.97;;;;;;;;;;5056751;28;20953;-94
2021/07/07 03:35:50;;;;;;;2.47;2.20;;;;;;;;;;5051475;28;20467;-92
2021/07/07 03:38:17;;;;;;;5.90;2.33;;;;;;;;;;5055475;28;20457;-94
2021/07/07 03:40:44;;;;;;;3.07;2.40;;;;;;;;;;5049895;28;20427;-94
2021/07/07 03:43:12;;;;;;;3.10;2.57;;;;;;;;;;5052249;28;20474;-92
2021/07/07 03:45:39;;;;;;;2.97;2.50;;;;;;;;;;5052141;28;20492;-93
2021/07/07 03:48:08;;;;;;;3.20;2.30;;;15.20;99.90;;;;;;5052559;28;20972;-94
2021/07/07 03:50:35;;;;;;;2.90;2.40;;;;;;;;;;5050478;28;20459;-93
2021/07/07 03:53:06;;;;;;;2.93;2.20;;;;;;;;;;5052662;28;20803;-94
2021/07/07 03:55:33;;;;;;;10.10;3.00;;;;;;;;;;5054904;28;20474;-94
2021/07/07 03:58:08;;;;;;;4.90;2.37;;;;;;;;;;5049334;28;20442;-92
2021/07/07 04:00:35;;;;;;;3.47;2.50;;;;;;;;;;5058602;28;20529;-93
2021/07/07 04:03:06;;;;;;;2.40;2.20;;;;;;;;;;5051255;28;20528;-93
2021/07/07 04:05:34;;;;;;;4.90;2.47;;;;;;;;;;5049284;28;20451;-94
2021/07/07 04:08:01;;;;;;;2.70;2.50;;;;;;;;;;5048513;28;20848;-93
2021/07/07 04:10:33;;;;;;;4.00;2.33;;;;;;;;;;5050250;28;20454;-92
2021/07/07 04:13:00;;;;;;;3.07;2.73;;;;;;;;;;5049099;28;20455;-93
2021/07/07 04:15:27;;;;;;;4.87;2.70;;;;;;;;;;5051181;28;20458;-94
2021/07/07 04:17:54;;;;;;;4.53;2.70;;;;;;;;;;5051666;28;20447;-94
2021/07/07 04:20:22;;;;;;;2.60;2.40;;;;;;;;;;5060416;28;20439;-93
2021/07/07 04:22:50;;;;;;;3.30;2.83;;;15.30;99.90;;;;;;5069855;28;20473;-94
2021/07/07 04:25:18;;;;;;;7.87;3.43;;;;;;;;;;5067855;28;20503;-94
2021/07/07 04:27:49;;;;;;;4.50;2.63;;;;;;;;;;5069020;28;20464;-91
2021/07/07 04:30:18;;;;;;;6.73;2.60;;;15.00;99.90;;;;;;5063343;28;20478;-94
2021/07/07 04:32:45;;;;;;;3.87;3.30;;;;;;;;;;5060830;28;20535;-93
2021/07/07 04:35:16;;;;;;;3.83;3.47;;;15.40;99.90;;;;;;5065375;28;20451;-94
2021/07/07 04:37:43;;;;;;;3.10;2.80;;;;;;;;;;5041970;22;20538;-96
2021/07/07 04:40:13;;;;;;;4.43;3.03;;;14.50;99.90;;;;;;5024250;28;20440;-92
2021/07/07 04:42:41;;;;;;;4.60;3.37;;;;;;;;;;5045657;23;20479;-92
2021/07/07 04:45:25;;;;;;;3.70;3.17;;;;;;;;;;5072990;22;20545;-95
2021/07/07 04:48:11;;;;;;;2.67;2.43;;;15.20;99.90;;;;;;5069074;22;20491;-92
2021/07/07 04:50:39;;;;;;;5.03;2.50;;;;;;;;;;5050474;28;20535;-93
2021/07/07 04:53:06;;;;;;;3.47;2.03;;;;;;;;;;5050698;28;20440;-93
2021/07/07 04:55:34;;;;;;;2.30;2.10;;;15.00;99.90;;;;;;5050844;28;20471;-92
2021/07/07 04:58:01;;;;;;;3.23;2.67;;;;;;;;;;5050664;28;20436;-93
2021/07/07 05:00:30;;;;;;;5.47;2.50;;;15.00;99.90;;;;;;5048619;28;20455;-93
2021/07/07 05:02:57;;;;;;;3.17;2.30;;;;;;;;;;5038420;28;20495;-93
2021/07/07 05:05:26;;;;;;;2.70;2.50;;;;;;;;;;5044556;28;20443;-93
2021/07/07 05:07:53;;;;;;;2.67;2.10;;;;;;;;;;5045284;28;20444;-91
2021/07/07 05:10:20;;;;;;;3.63;2.30;;;;;;;;;;5044567;28;20455;-92
2021/07/07 05:12:49;;;;;;;3.03;1.87;;;;;;;;;;5061354;22;20490;-90
2021/07/07 05:15:17;;;;;;;4.33;3.07;;;15.00;99.90;;;;;;5065905;28;20481;-90
2021/07/07 05:17:45;;;;;;;3.37;2.30;;;15.40;99.90;;;;;;5057512;28;20458;-91
2021/07/07 05:20:13;;;;;;;3.50;3.07;;;15.40;99.90;;;;;;5067907;28;20443;-94
2021/07/07 05:22:43;;;;;;;4.57;3.10;;;15.20;99.90;;;;;;5064648;28;20466;-92
2021/07/07 05:25:11;;;;;;;3.90;3.17;;;15.60;99.90;;;;;;5061062;28;20465;-91
2021/07/07 05:27:38;;;;;;;4.57;2.67;;;;;;;;;;5062250;28;20449;-93
2021/07/07 05:30:07;;;;;;;3.30;3.00;;;15.60;99.90;;;;;;5059249;28;20489;-94
2021/07/07 05:32:34;;;;;;;5.60;3.20;;;;;;;;;;5060640;28;20808;-93
2021/07/07 05:35:01;;;;;;;3.73;3.43;;;;;;;;;;5061562;28;20511;-91
2021/07/07 05:37:28;;;;;;;3.20;2.90;;;;;;;;;;5059663;28;20442;-94
2021/07/07 05:39:56;;;;;;;3.30;3.10;;;15.50;99.90;;;;;;5059110;28;20876;-93
2021/07/07 05:42:23;;;;;;;6.80;3.20;;;;;;;;;;5060041;28;20438;-93
2021/07/07 05:44:52;;;;;;;5.40;3.00;;;15.40;99.90;;;;;;5051619;28;20450;-88
2021/07/07 05:47:19;;;;;;;5.90;2.90;;;;;;;;;;5054585;28;20797;-91
2021/07/07 05:49:46;;;;;;;2.73;2.50;;;15.40;99.90;;;;;;5056825;28;20450;-94
2021/07/07 05:52:13;;;;;;;3.30;2.50;;;;;;;;;;5056337;28;20447;-88
2021/07/07 05:54:40;;;;;;;3.70;2.60;;;15.50;99.90;;;;;;5055747;28;20498;-94
2021/07/07 05:57:15;;;;;;;2.60;2.40;;;;;;;;;;5054360;28;20455;-93
2021/07/07 05:59:42;;;;;;;5.83;2.77;;;;;;;;;;5068332;28;20433;-95
2021/07/07 06:02:09;;;;;;;4.30;2.27;;;;;;;;;;5062865;28;20435;-91
2021/07/07 06:04:37;;;;;;;5.70;2.97;;;;;;;;;;5057931;28;20442;-90
2021/07/07 06:07:05;;;;;;;2.80;2.13;;;;;;;;;;5053981;28;20458;-91
2021/07/07 06:09:32;;;;;;;4.97;2.67;;;;;;;;;;5059418;28;20430;-92
2021/07/07 06:11:59;;;;;;;3.20;2.40;;;;;;;;;;5055854;28;20466;-90
2021/07/07 06:14:27;;;;;;;2.77;2.57;;;16.10;99.90;;;;;;5067074;28;20457;-92
2021/07/07 06:16:55;;;;;;;3.83;3.37;;;;;;;;;;5053957;28;20437;-92
2021/07/07 06:19:22;;;;;;;5.40;3.53;;;;;;;;;;5059623;28;20497;-94
2021/07/07 06:21:49;;;;;;;5.00;2.97;;;;;;;;;;5057348;28;20446;-95
2021/07/07 06:24:17;;;;;;;2.83;2.40;;;;;;;;;;5054701;28;20490;-90
2021/07/07 06:26:44;;;;;;;2.90;2.47;;;;;;;;;;5050662;28;20489;-86
2021/07/07 06:29:12;;;;;;;3.23;2.70;;;;;;;;;;5053468;28;20447;-88
2021/07/07 06:31:40;;;;;;;5.67;2.20;;;16.30;99.90;;;;;;5054986;28;20442;-90
2021/07/07 06:34:07;;;;;;;2.60;1.97;;;;;;;;;;5052808;28;20447;-88
2021/07/07 06:36:34;;;;;;;4.93;2.40;;;;;;;;;;5059666;28;20807;-88
2021/07/07 06:39:01;;;;;;;4.67;2.70;;;;;;;;;;5060845;28;20445;-85
2021/07/07 06:41:30;;;;;;;2.17;2.00;;;;;;;;;;5069271;28;20449;-88
2021/07/07 06:43:57;;;;;;;5.63;2.50;;;;;;;;;;5067415;28;20504;-89
2021/07/07 06:46:24;;;;;;;3.00;2.10;;;;;;;;;;5056798;28;20926;-90
2021/07/07 06:48:52;;;;;;;4.83;2.03;;;16.40;99.90;;;;;;5058713;28;20446;-87
2021/07/07 06:51:19;;;;;;;3.00;2.17;;;;;;;;;;5058768;28;20443;-85
2021/07/07 06:53:47;;;;;;;5.40;2.30;;;;;;;;;;5056274;28;20485;-87
2021/07/07 06:56:14;;;;;;;3.23;2.00;;;;;;;;;;5054292;28;20465;-86
2021/07/07 06:58:41;;;;;;;2.33;2.10;;;;;;;;;;5054567;28;20455;-87
2021/07/07 07:01:08;;;;;;;3.83;1.80;;;;;;;;;;5054903;28;20457;-87
2021/07/07 07:03:35;;;;;;;3.33;2.10;;;;;;;;;;5057303;28;20583;-86
2021/07/07 07:06:04;;;;;;;3.83;1.70;;;15.60;99.90;;;;;;5059354;28;20477;-89
2021/07/07 07:08:32;;;;;;;2.40;1.83;;;;;;;;;;5059232;28;20451;-86
2021/07/07 07:10:59;;;;;;;3.07;1.97;;;;;;;;;;5053671;28;20447;-88
2021/07/07 07:13:26;;;;;;;1.70;1.60;;;;;;;;;;5048673;28;20489;-89
2021/07/07 07:15:54;;;;;;;4.57;2.20;;;;;;;;;;5057438;28;20538;-88
2021/07/07 07:18:21;;;;;;;4.33;1.80;;;;;;;;;;5038459;28;20440;-90
2021/07/07 07:20:48;;;;;;;4.17;1.80;;;;;;;;;;5038226;28;20443;-90
2021/07/07 07:23:16;;;;;;;5.43;1.80;;;16.10;99.90;;;;;;5040204;28;20490;-88
2021/07/07 07:25:43;;;;;;;3.03;1.90;;;;;;;;;;5058105;28;20486;-90
2021/07/07 07:28:10;;;;;;;3.37;1.80;;;;;;;;;;5058743;28;20447;-89
2021/07/07 07:30:37;;;;;;;2.00;1.40;;;;;;;;;;5058760;28;20446;-90
2021/07/07 07:33:06;;;;;;;2.93;2.00;;;;;;;;;;5058359;28;20449;-89
2021/07/07 07:35:33;;;;;;;2.10;1.67;;;;;;;;;;5059670;28;20840;-88
2021/07/07 07:38:04;;;;;;;4.40;2.00;;;;;;;;;;5055460;28;20847;-90
2021/07/07 07:40:36;;;;;;;4.80;2.20;;;16.10;99.90;;;;;;5058012;28;20472;-88
2021/07/07 07:43:04;;;;;;;2.83;1.87;;;16.40;99.90;;;;;;5055228;28;20497;-86
2021/07/07 07:45:31;;;;;;;5.40;1.70;;;;;;;;;;5059026;28;20457;-89
2021/07/07 07:47:58;;;;;;;6.50;2.10;;;;;;;;;;5055386;28;20451;-88
2021/07/07 07:50:26;;;;;;;2.60;1.67;;;16.50;99.90;;;;;;5058853;28;20451;-88
2021/07/07 07:52:53;;;;;;;4.33;1.93;;;;;;;;;;5058902;28;20502;-87
2021/07/07 07:55:21;;;;;;;5.00;1.80;;;16.30;99.90;;;;;;5059433;28;20958;-87
2021/07/07 07:57:50;;;;;;;3.13;2.23;;;16.40;99.90;;;;;;5061079;28;20430;-91
2021/07/07 08:00:20;;;;;;;4.00;1.80;;;16.50;99.90;;;;;;5061371;28;20485;-93
2021/07/07 08:02:50;;;;;;;5.67;1.83;;;;;;;;;;5069489;28;20438;-92
2021/07/07 08:05:18;;;;;;;2.53;1.70;;;;;;;;;;5078294;28;20451;-96
2021/07/07 08:07:53;;;;;;;4.53;1.97;;;;;;;;;;5066114;28;20447;-94
2021/07/07 08:10:22;;;;;;;2.80;1.67;;;;;;;;;;5063268;28;20451;-94
2021/07/07 08:12:59;;;;;;;1.70;1.60;;;;;;;;;;5062540;28;20478;-91
2021/07/07 08:15:27;;;;;;;2.40;1.87;;;16.30;99.90;;;;;;5058990;28;20526;-91
2021/07/07 08:17:56;;;;;;;3.93;1.80;;;;;;;;;;5058846;28;20453;-89
2021/07/07 08:20:23;;;;;;;3.63;2.03;;;;;;;;;;5055980;28;20458;-93
2021/07/07 08:22:50;;;;;;;2.93;1.67;;;;;;;;;;5057865;28;20450;-91
2021/07/07 08:25:18;;;;;;;2.07;1.70;;;;;;;;;;5056947;28;20501;-91
2021/07/07 08:27:45;;;;;;;3.73;1.80;;;;;;;;;;5061209;28;20453;-90
2021/07/07 08:30:15;;;;;;;4.60;1.73;;;16.50;99.90;;;;;;5061725;28;20450;-92
2021/07/07 08:32:42;;;;;;;3.97;1.90;;;;;;;;;;5062756;28;20533;-92
2021/07/07 08:35:11;;;;;;;3.37;1.70;;;16.60;99.90;;;;;;5063013;28;20496;-91
2021/07/07 08:37:38;;;;;;;3.53;1.60;;;;;;;;;;5065731;28;20451;-94
2021/07/07 08:40:26;;;;;;;3.00;1.90;;;15.90;99.90;;;;;;5131484;23;20483;-95
2021/07/07 08:42:54;;;;;;;2.33;1.50;;;;;;;;;;5046419;28;20890;-91
2021/07/07 08:45:22;;;;;;;2.13;1.50;;;;;;;;;;5044854;28;20498;-90
2021/07/07 08:47:50;;;;;;;4.97;2.17;;;16.70;99.90;;;;;;5044316;28;21048;-93
2021/07/07 08:50:20;;;;;;;1.87;1.70;;;16.60;99.90;;;;;;5048555;28;20456;-92
2021/07/07 08:52:48;;;;;;;3.17;1.80;;;;;;;;;;5043775;28;20470;-93
2021/07/07 08:55:17;;;;;;;2.03;1.83;;;16.30;99.90;;;;;;5044498;28;20796;-90
2021/07/07 09:00:36;;;;;;;3.17;2.00;;;16.90;99.90;;;;;;5003322;28;20439;-89
2021/07/07 09:03:09;;;;;;;1.93;1.37;;;17.20;99.90;;;;;;5046449;28;20440;-91
2021/07/07 09:05:54;;;;;;;2.93;2.07;;;17.30;99.90;;;;;;5047962;28;20538;-89
2021/07/07 09:08:28;;;;;;;4.93;1.40;;;17.20;99.90;;;;;;5053384;28;20459;-90
2021/07/07 09:10:56;;;;;;;2.77;1.80;;;17.20;99.90;;;;;;5044876;28;20447;-89
2021/07/07 09:13:24;;;;;;;4.10;1.80;;;;;;;;;;5046480;28;20490;-92
2021/07/07 09:15:53;;;;;;;3.10;1.80;;;16.60;99.90;;;;;;5042636;28;20452;-90
2021/07/07 09:18:33;;;;;;;2.53;1.60;;;17.30;99.90;;;;;;5046339;28;20803;-90
2021/07/07 09:21:00;;;;;;;2.03;1.20;;;;;;;;;;5040473;28;20447;-90
2021/07/07 09:23:29;;;;;;;2.83;1.80;;;16.80;99.90;;;;;;5050323;28;20447;-91
2021/07/07 09:28:43;;;;;;;1.60;1.50;;;;;;;;;;5016054;28;20445;-89
2021/07/07 09:31:31;;;;;;;1.77;1.43;;;16.80;99.90;;;;;;5003145;28;20826;-89
2021/07/07 09:34:12;;;;;;;3.30;1.20;;;17.00;99.90;;;;;;5020595;28;20452;-86
2021/07/07 09:36:41;;;;;;;1.30;1.20;;;17.00;99.90;;;;;;5011497;28;20452;-88
2021/07/07 09:39:08;;;;;;;2.37;1.60;;;;;;;;;;5000771;28;20452;-87
2021/07/07 09:41:35;;;;;;;1.10;0.97;;;17.20;99.90;;;;;;5002510;28;20456;-87
2021/07/07 09:44:04;;;;;;;2.03;1.27;;;17.10;99.90;;;;;;5008084;28;20484;-93
2021/07/07 09:46:34;;;;;;;3.37;1.60;;;17.30;99.90;;;;;;5025385;28;20480;-87
2021/07/07 09:49:02;;;;;;;3.93;1.40;;;;;;;;;;5029917;28;20453;-88
2021/07/07 09:51:32;;;;;;;1.20;1.10;;;;;;;;;;5028128;28;20456;-87
2021/07/07 09:53:59;;;;;;;3.43;1.60;;;;;;;;;;5025983;28;20452;-86
2021/07/07 09:56:26;;;;;;;3.80;1.63;;;;;;;;;;5029473;28;20463;-88
2021/07/07 09:58:53;;;;;;;1.37;1.20;;;;;;;;;;5025246;28;20452;-87
2021/07/07 10:01:20;;;;;;;1.43;1.33;;;;;;;;;;5020213;28;20452;-86
2021/07/07 10:03:49;;;;;;;3.40;1.50;;;17.20;99.90;;;;;;5024795;28;20491;-87
2021/07/07 10:06:17;;;;;;;1.93;1.57;;;;;;;;;;5013353;28;20504;-87
2021/07/07 10:08:51;;;;;;;1.40;1.30;;;17.60;99.90;;;;;;5002881;28;20508;-84
2021/07/07 10:11:30;;;;;;;3.93;1.70;;;17.80;99.90;;;;;;5046664;28;20497;-84
2021/07/07 10:13:57;;;;;;;2.03;1.40;;;;;;;;;;5009705;28;20538;-87
2021/07/07 10:16:24;;;;;;;1.60;1.33;;;;;;;;;;5031095;28;20466;-84
2021/07/07 10:18:55;;;;;;;1.47;1.10;;;17.80;99.90;;;;;;5021827;28;20958;-91
2021/07/07 10:21:23;;;;;;;2.17;1.37;;;17.70;99.90;;;;;;5020417;28;20488;-83
2021/07/07 10:23:51;;;;;;;3.80;1.40;;;17.80;99.90;;;;;;5020448;28;20455;-84
2021/07/07 10:26:21;;;;;;;1.40;1.17;;;17.90;99.90;;;;;;5023530;28;20449;-83
2021/07/07 10:28:49;;;;;;;4.90;1.43;;;;;;;;;;5020522;28;20476;-83
2021/07/07 10:31:15;;;;;;;1.60;1.20;;;18.40;99.90;;;;;;5013768;28;20468;-82
2021/07/07 10:33:43;;;;;;;2.50;1.60;;;;;;;;;;5017241;28;20456;-82
2021/07/07 10:36:23;;;;;;;1.20;1.10;;;18.70;99.90;;;;;;5018049;28;20464;-83
2021/07/07 10:38:55;;;;;;;1.03;1.00;;;18.10;99.90;;;;;;5013793;28;20460;-82
2021/07/07 10:41:50;;;;;;;2.50;1.20;;;18.80;99.90;;;;;;5007767;28;20486;-82
2021/07/07 10:44:55;;;;;;;1.00;0.90;;;18.00;99.90;;;;;;4995239;28;20488;-85
2021/07/07 10:47:39;;;;;;;1.63;1.23;;;18.10;99.90;;;;;;5019419;28;20908;-85
2021/07/07 10:50:11;;;;;;;1.23;1.13;;;17.90;99.90;;;;;;5021875;28;20448;-87
2021/07/07 10:52:44;;;;;;;1.30;1.20;;;18.10;99.90;;;;;;5021815;28;20453;-82
2021/07/07 10:55:13;;;;;;;1.13;1.03;;;18.10;99.90;;;;;;5038220;28;20445;-83
2021/07/07 10:57:40;;;;;;;3.97;1.20;;;;;;;;;;5029265;28;20439;-85
2021/07/07 11:00:30;;;;;;;1.20;1.10;;;18.10;99.90;;;;;;5019417;28;20479;-83
2021/07/07 11:03:20;;;;;;;2.00;1.43;;;18.10;99.90;;;;;;5018629;28;20452;-83
2021/07/07 11:05:47;;;;;;;1.63;1.27;;;;;;;;;;5016696;28;20562;-83
2021/07/07 11:08:20;;;;;;;1.40;1.23;;;18.90;99.90;;;;;;5016696;28;20452;-82
2021/07/07 11:10:55;;;;;;;1.60;1.10;;;18.80;99.90;;;;;;5017314;28;20471;-83
2021/07/07 11:13:22;;;;;;;1.60;1.27;;;;;;;;;;5019177;28;20447;-87
2021/07/07 11:15:49;;;;;;;2.70;1.10;;;;;;;;;;5018918;28;20456;-83
2021/07/07 11:18:22;;;;;;;3.33;1.57;;;19.20;99.90;;;;;;5017879;28;20499;-85
2021/07/07 11:21:01;;;;;;;1.30;1.10;;;19.00;99.90;;;;;;5017876;28;20519;-85
2021/07/07 11:23:35;;;;;;;3.27;1.37;;;19.10;99.90;;;;;;5019363;28;20451;-85
2021/07/07 11:26:02;;;;;;;1.53;1.30;;;;;;;;;;5017512;28;20488;-87
2021/07/07 11:28:29;;;;;;;2.20;1.13;;;19.40;99.90;;;;;;5020868;28;20635;-88
2021/07/07 11:30:56;;;;;;;8.10;1.37;;;;;;;;;;5017812;28;20479;-86
2021/07/07 11:33:24;;;;;;;1.17;0.90;;;;;;;;;;5021162;28;20472;-84
2021/07/07 11:35:51;;;;;;;1.10;1.00;;;;;;;;;;5020912;28;20460;-84
2021/07/07 11:38:22;;;;;;;1.20;1.10;;;19.00;99.90;;;;;;5017573;28;20456;-85
2021/07/07 11:40:53;;;;;;;1.97;1.03;;;19.20;99.90;;;;;;5016585;28;21000;-89
2021/07/07 11:43:24;;;;;;;2.40;1.50;;;19.40;99.90;;;;;;5017409;28;20484;-83
2021/07/07 11:45:56;;;;;;;2.47;1.10;;;19.40;99.90;;;;;;5024514;28;20492;-85
2021/07/07 11:48:27;;;;;;;1.37;0.90;;;19.60;99.90;;;;;;5016721;28;20448;-90
2021/07/07 11:51:03;;;;;;;0.97;0.97;;;19.80;99.90;;;;;;5016495;28;20459;-87
2021/07/07 11:53:36;;;;;;;1.90;1.20;;;19.60;99.90;;;;;;5017842;28;20448;-88
2021/07/07 11:56:09;;;;;;;1.17;0.93;;;19.80;99.90;;;;;;5023121;28;20939;-88
2021/07/07 11:58:41;;;;;;;2.60;0.97;;;20.00;99.90;;;;;;5021288;28;20494;-84
2021/07/07 12:01:09;;;;;;;1.17;0.97;;;20.50;99.90;;;;;;5015916;28;20453;-84
2021/07/07 12:03:40;;;;;;;2.50;1.33;;;21.10;99.90;;;;;;5021619;28;20483;-82
2021/07/07 12:06:09;;;;;;;1.57;1.27;;;21.50;99.90;;;;;;5029353;28;20518;-85
2021/07/07 12:08:37;;;;;;;1.57;1.30;;;21.30;99.90;;;;;;5035429;28;20471;-85
2021/07/07 12:11:09;;;;;;;1.33;1.17;;;20.60;99.90;;;;;;5035841;28;20462;-85
2021/07/07 12:13:37;;;;;;;1.10;0.80;;;;;;;;;;5036552;28;20519;-86
2021/07/07 12:16:15;;;;;;;1.53;1.43;;;20.30;99.90;;;;;;5030397;28;20456;-84
2021/07/07 12:18:43;;;;;;;3.23;1.50;;;;;;;;;;5034326;28;20460;-84
2021/07/07 12:21:10;;;;;;;2.30;1.10;;;;;;;;;;5035820;28;20462;-85
2021/07/07 12:23:47;;;;;;;0.70;0.70;;;20.00;99.90;;;;;;5036425;28;20452;-85
2021/07/07 12:26:19;;;;;;;1.10;0.97;;;19.80;99.90;;;;;;5036512;28;20863;-86
2021/07/07 12:28:46;;;;;;;1.67;1.00;;;;;;;;;;5036010;28;20472;-85
2021/07/07 12:31:13;;;;;;;0.80;0.80;;;;;;;;;;5035031;28;20463;-86
2021/07/07 12:33:42;;;;;;;1.07;0.90;;;19.80;99.90;;;;;;5033536;28;20451;-85
2021/07/07 12:36:27;;;;;;;1.23;1.10;;;20.10;99.90;;;;;;5036679;28;20448;-87
2021/07/07 12:38:56;;;;;;;1.33;1.23;;;;;;;;;;5033394;28;20498;-90
2021/07/07 12:41:32;;;;;;;0.90;0.90;;;20.10;99.90;;;;;;5035713;28;20448;-87
2021/07/07 12:44:07;;;;;;;1.17;1.00;;;;;;;;;;5033996;28;20451;-85
2021/07/07 12:46:35;;;;;;;2.63;1.20;;;;;;;;;;5035945;28;20844;-86
2021/07/07 12:49:02;;;;;;;1.90;1.10;;;;;;;;;;5036110;28;20797;-85
2021/07/07 12:51:30;;;;;;;1.20;1.00;;;21.40;99.90;;;;;;5035956;28;20451;-85
2021/07/07 12:53:58;;;;;;;1.50;1.20;;;21.40;99.90;;;;;;5035925;28;20871;-84
2021/07/07 12:56:27;;;;;;;0.80;0.70;;;21.50;99.90;;;;;;5036341;28;20462;-84
2021/07/07 12:59:10;;;;;;;1.33;0.90;;;22.00;99.90;;;;;;5039926;28;20458;-86
2021/07/07 13:01:37;;;;;;;0.77;0.50;;;;;;;;;;5037709;28;20482;-87
2021/07/07 13:04:04;;;;;;;0.80;0.80;;;;;;;;;;5042806;28;20451;-87
2021/07/07 13:06:31;;;;;;;1.00;0.90;;;;;;;;;;5036449;28;20522;-90
2021/07/07 13:09:03;;;;;;;6.10;0.97;;;20.90;99.90;;;;;;5031120;28;20439;-85
2021/07/07 13:11:32;;;;;;;1.20;0.70;;;21.40;99.90;;;;;;5036811;28;20475;-86
2021/07/07 13:14:00;;;;;;;0.57;0.57;;;21.50;99.90;;;;;;5038653;28;20448;-85
2021/07/07 13:16:28;;;;;;;1.00;0.83;;;21.60;99.90;;;;;;5042909;28;20482;-84
2021/07/07 13:19:00;;;;;;;1.00;0.90;;;21.20;99.90;;;;;;5039666;28;20452;-85
2021/07/07 13:21:49;;;;;;;1.67;0.90;;;21.00;99.90;;;;;;5041097;28;20451;-83
2021/07/07 13:24:29;;;;;;;1.47;1.00;;;21.20;99.90;;;;;;5032688;28;20455;-88
2021/07/07 13:27:07;;;;;;;0.90;0.90;;;21.50;99.90;;;;;;5010513;28;20533;-84
2021/07/07 13:29:37;;;;;;;0.80;0.80;;;22.50;99.90;;;;;;5016822;28;20484;-87
2021/07/07 13:32:22;;;;;;;0.97;0.80;;;22.00;99.90;;;;;;5006918;28;20452;-85
2021/07/07 13:34:51;;;;;;;0.70;0.70;;;22.40;99.90;;;;;;4998018;28;20460;-83
2021/07/07 13:37:22;;;;;;;1.33;1.00;;;22.50;99.90;;;;;;4997802;28;20445;-84
2021/07/07 13:39:50;;;;;;;3.17;1.00;;;21.70;99.90;;;;;;4997411;28;20481;-84
2021/07/07 13:42:21;;;;;;;1.10;0.93;;;21.50;99.90;;;;;;5016697;28;20452;-86
2021/07/07 13:44:48;;;;;;;1.10;1.00;;;21.30;99.90;;;;;;5016644;28;20539;-84
2021/07/07 13:47:15;;;;;;;1.77;1.20;;;;;;;;;;5015509;28;20456;-87
2021/07/07 13:49:43;;;;;;;1.23;1.00;;;;;;;;;;5016039;28;20455;-85
2021/07/07 13:52:10;;;;;;;1.20;1.10;;;;;;;;;;5017288;28;20540;-86
2021/07/07 13:54:38;;;;;;;1.30;0.87;;;;;;;;;;5016435;28;20456;-85
2021/07/07 13:57:06;;;;;;;1.03;0.77;;;21.20;99.90;;;;;;5016203;28;20464;-84
2021/07/07 13:59:34;;;;;;;1.10;1.00;;;21.80;99.90;;;;;;5014315;28;20459;-82
2021/07/07 14:02:01;;;;;;;1.13;1.03;;;;;;;;;;5011097;28;20460;-82
2021/07/07 14:04:28;;;;;;;1.20;1.10;;;;;;;;;;5016419;28;20456;-86
2021/07/07 14:06:56;;;;;;;1.50;1.30;;;;;;;;;;5017993;28;20498;-84
2021/07/07 14:09:23;;;;;;;1.63;1.23;;;;;;;;;;5016078;28;20533;-83
2021/07/07 14:11:50;;;;;;;0.80;0.77;;;;;;;;;;5015112;28;20452;-83